createdAt,value
2023-01-04T00:03:40.921Z,63.70
2023-01-04T00:08:45.150Z,63.80
2023-01-04T00:13:51.035Z,64.20
2023-01-04T00:18:55.883Z,63.90
2023-01-04T00:24:01.690Z,64.10
2023-01-04T00:29:12.211Z,64.00
2023-01-04T00:34:17.966Z,64.50
2023-01-04T00:39:21.928Z,64.20
2023-01-04T00:44:26.486Z,64.30
2023-01-04T00:49:31.658Z,64.30
2023-01-04T00:54:36.011Z,64.30
2023-01-04T00:59:40.234Z,64.40
2023-01-04T01:04:44.457Z,64.30
2023-01-04T01:09:49.573Z,64.70
2023-01-04T01:14:58.631Z,64.40
2023-01-04T01:20:06.032Z,64.50
2023-01-04T01:25:10.220Z,64.30
2023-01-04T01:30:14.352Z,63.90
2023-01-04T01:35:18.364Z,63.70
2023-01-04T01:40:22.616Z,63.80
2023-01-04T01:45:34.597Z,63.40
2023-01-04T01:50:44.881Z,63.10
2023-01-04T01:55:51.029Z,63.00
2023-01-04T02:00:55.227Z,62.80
2023-01-04T02:06:01.886Z,62.70
2023-01-04T02:11:06.231Z,62.30
2023-01-04T02:16:22.708Z,62.70
2023-01-04T02:21:46.245Z,62.30
2023-01-04T02:27:17.604Z,63.10
2023-01-04T02:32:26.028Z,63.00
2023-01-04T02:38:12.646Z,62.70
2023-01-04T02:43:48.105Z,62.60
2023-01-04T02:49:11.161Z,62.40
2023-01-04T02:54:19.591Z,62.10
2023-01-04T02:59:52.187Z,61.70
2023-01-04T03:05:14.936Z,61.80
2023-01-04T03:10:42.115Z,61.60
2023-01-04T03:15:53.122Z,60.90
2023-01-04T03:21:01.780Z,60.70
2023-01-04T03:26:29.799Z,60.50
2023-01-04T03:32:20.292Z,60.30
2023-01-04T03:37:43.656Z,59.80
2023-01-04T03:43:32.516Z,59.50
2023-01-04T03:49:05.836Z,59.80
2023-01-04T03:54:31.868Z,59.20
2023-01-04T03:59:49.898Z,59.20
2023-01-04T04:05:12.997Z,59.30
2023-01-04T04:10:17.654Z,59.30
2023-01-04T04:15:21.965Z,59.40
2023-01-04T04:20:25.995Z,59.80
2023-01-04T04:25:30.026Z,59.40
2023-01-04T04:30:34.371Z,59.50
2023-01-04T04:35:39.631Z,59.60
2023-01-04T04:41:02.395Z,59.50
2023-01-04T04:46:06.522Z,59.60
2023-01-04T04:51:10.760Z,59.50
2023-01-04T04:56:15.121Z,59.60
2023-01-04T05:01:20.126Z,59.60
2023-01-04T05:06:24.807Z,59.60
2023-01-04T05:11:47.274Z,59.50
2023-01-04T05:16:51.725Z,59.60
2023-01-04T05:21:56.051Z,59.70
2023-01-04T05:27:01.927Z,59.70
2023-01-04T05:32:06.618Z,59.80
2023-01-04T05:37:12.124Z,59.90
2023-01-04T05:42:28.639Z,60.00
2023-01-04T05:47:33.202Z,59.90
2023-01-04T05:52:37.823Z,60.00
2023-01-04T05:57:43.627Z,59.70
2023-01-04T06:02:48.154Z,59.50
2023-01-04T06:07:53.372Z,59.30
2023-01-04T06:12:57.662Z,59.10
2023-01-04T06:18:02.086Z,58.80
2023-01-04T06:23:06.365Z,58.60
2023-01-04T06:28:11.724Z,58.70
2023-01-04T06:33:16.145Z,58.10
2023-01-04T06:38:20.481Z,57.90
2023-01-04T06:43:24.822Z,58.20
2023-01-04T06:48:28.961Z,57.90
2023-01-04T06:53:33.594Z,57.80
2023-01-04T06:58:38.603Z,57.80
2023-01-04T07:03:42.925Z,58.00
2023-01-04T07:08:47.134Z,58.20
2023-01-04T07:13:53.116Z,58.30
2023-01-04T07:18:58.792Z,59.00
2023-01-04T07:24:03.214Z,59.10
2023-01-04T07:29:17.528Z,58.90
2023-01-04T07:34:24.118Z,59.10
2023-01-04T07:39:28.205Z,59.40
2023-01-04T07:44:32.360Z,59.60
2023-01-04T07:49:37.297Z,59.90
2023-01-04T07:54:41.412Z,59.70
2023-01-04T07:59:45.760Z,60.40
2023-01-04T08:04:49.946Z,60.00
2023-01-04T08:09:54.229Z,60.10
2023-01-04T08:14:58.495Z,60.00
2023-01-04T08:20:02.715Z,60.50
2023-01-04T08:25:07.460Z,60.20
2023-01-04T08:30:12.684Z,60.20
2023-01-04T08:35:17.275Z,60.10
2023-01-04T08:40:21.307Z,59.60
2023-01-04T08:45:25.651Z,60.00
2023-01-04T08:50:29.779Z,60.30
2023-01-04T08:55:34.028Z,60.50
2023-01-04T09:00:38.042Z,59.90
2023-01-04T09:05:45.371Z,60.00
2023-01-04T09:10:49.393Z,60.10
2023-01-04T09:15:53.664Z,60.10
2023-01-04T09:20:58.581Z,60.20
2023-01-04T09:26:10.796Z,60.50
2023-01-04T09:31:18.330Z,60.60
2023-01-04T09:36:22.655Z,60.50
2023-01-04T09:41:40.097Z,60.50
2023-01-04T09:46:56.005Z,60.80
2023-01-04T09:52:05.879Z,60.30
2023-01-04T09:57:21.914Z,60.30
2023-01-04T10:02:50.756Z,60.30
2023-01-04T10:07:55.214Z,60.70
2023-01-04T10:13:00.120Z,60.70
2023-01-04T10:24:14.855Z,60.40
2023-01-04T10:29:29.914Z,60.30
2023-01-04T10:34:42.495Z,59.80
2023-01-04T10:39:53.489Z,59.50
2023-01-04T10:45:09.380Z,59.10
2023-01-04T10:50:25.655Z,59.30
2023-01-04T10:55:39.412Z,60.80
2023-01-04T11:00:48.086Z,61.30
2023-01-04T11:05:58.941Z,61.90
2023-01-04T11:11:11.361Z,62.50
2023-01-04T11:16:16.504Z,62.30
2023-01-04T11:21:26.722Z,62.80
2023-01-04T11:26:35.724Z,63.40
2023-01-04T11:31:54.909Z,63.40
2023-01-04T11:36:59.057Z,63.10
2023-01-04T11:42:06.242Z,64.00
2023-01-04T11:47:21.157Z,63.90
2023-01-04T11:52:33.376Z,63.80
2023-01-04T11:57:38.114Z,64.20
2023-01-04T12:03:00.673Z,64.20
2023-01-04T12:08:06.857Z,64.40
2023-01-04T12:13:11.096Z,64.10
2023-01-04T12:18:26.265Z,64.10
2023-01-04T12:23:31.228Z,64.10
2023-01-04T12:28:40.176Z,64.10
2023-01-04T12:33:45.152Z,64.00
2023-01-04T12:38:55.102Z,63.80
2023-01-04T12:43:59.445Z,64.20
2023-01-04T12:49:29.157Z,64.60
2023-01-04T12:54:46.179Z,65.70
2023-01-04T13:00:06.999Z,65.40
2023-01-04T13:10:51.848Z,65.50
2023-01-04T13:16:12.303Z,66.00
2023-01-04T13:21:28.025Z,65.10
2023-01-04T13:26:32.271Z,64.80
2023-01-04T13:31:46.494Z,65.10
2023-01-04T13:37:14.799Z,64.70
2023-01-04T13:42:19.450Z,65.70
2023-01-04T13:47:27.113Z,65.60
2023-01-04T13:52:53.040Z,65.60
2023-01-04T13:58:02.624Z,66.00
2023-01-04T14:03:06.885Z,65.30
2023-01-04T14:08:12.150Z,65.50
2023-01-04T14:13:19.205Z,65.60
2023-01-04T14:18:30.040Z,65.30
2023-01-04T14:23:37.683Z,65.10
2023-01-04T14:28:49.318Z,65.00
2023-01-04T14:33:55.225Z,65.00
2023-01-04T14:39:06.707Z,65.00
2023-01-04T14:44:18.101Z,65.20
2023-01-04T14:49:23.392Z,64.80
2023-01-04T14:54:29.252Z,64.70
2023-01-04T14:59:33.441Z,64.50
2023-01-04T15:04:37.863Z,64.30
2023-01-04T15:09:41.999Z,64.80
2023-01-04T15:14:46.240Z,64.70
2023-01-04T15:19:50.368Z,64.40
2023-01-04T15:24:54.603Z,64.60
2023-01-04T15:29:58.782Z,63.90
2023-01-04T15:35:04.729Z,64.10
2023-01-04T15:40:09.252Z,64.00
2023-01-04T15:45:13.489Z,63.50
2023-01-04T15:50:19.016Z,63.20
2023-01-04T15:55:23.197Z,63.10
2023-01-04T16:00:27.984Z,62.80
2023-01-04T16:05:32.079Z,62.50
2023-01-04T16:10:36.628Z,62.40
2023-01-04T16:15:41.906Z,62.30
2023-01-04T16:20:46.137Z,62.50
2023-01-04T16:25:50.460Z,62.50
2023-01-04T16:30:56.640Z,62.00
2023-01-04T16:36:03.284Z,61.90
2023-01-04T16:41:09.309Z,61.70
2023-01-04T16:46:13.371Z,62.20
2023-01-04T16:51:18.411Z,61.80
2023-01-04T16:56:24.347Z,61.30
2023-01-04T17:01:31.385Z,61.30
2023-01-04T17:06:37.801Z,61.30
2023-01-04T17:17:06.830Z,61.30
2023-01-04T17:22:11.569Z,61.50
2023-01-04T17:27:15.804Z,62.10
2023-01-04T17:32:20.541Z,62.60
2023-01-04T17:37:25.630Z,62.80
2023-01-04T17:42:33.641Z,62.30
2023-01-04T17:47:37.975Z,62.50
2023-01-04T17:52:43.050Z,62.70
2023-01-04T17:57:47.699Z,59.90
2023-01-04T18:02:53.338Z,60.90
2023-01-04T18:07:57.889Z,60.70
2023-01-04T18:13:03.256Z,62.10
2023-01-04T18:18:08.341Z,64.00
2023-01-04T18:23:24.353Z,62.90
2023-01-04T18:28:31.251Z,63.40
2023-01-04T18:33:36.104Z,63.30
2023-01-04T18:38:45.684Z,63.70
2023-01-04T18:44:22.568Z,62.80
2023-01-04T18:49:25.353Z,62.90
2023-01-04T18:54:31.015Z,63.50
2023-01-04T18:59:36.105Z,62.80
2023-01-04T19:04:41.818Z,62.50
2023-01-04T19:09:47.929Z,62.50
2023-01-04T19:14:54.207Z,62.50
2023-01-04T19:20:03.313Z,62.80
2023-01-04T19:25:10.875Z,62.20
2023-01-04T19:30:27.801Z,61.90
2023-01-04T19:43:07.844Z,61.40
2023-01-04T19:48:20.577Z,61.20
2023-01-04T19:53:26.399Z,61.00
2023-01-04T19:58:36.857Z,61.70
2023-01-04T20:03:52.735Z,61.10
2023-01-04T20:09:50.320Z,61.60
2023-01-04T20:41:14.124Z,61.90
2023-01-04T20:46:37.145Z,62.00
2023-01-04T20:51:52.616Z,62.20
2023-01-04T20:57:00.175Z,61.80
2023-01-04T21:16:42.210Z,62.70
2023-01-04T21:21:46.999Z,61.40
2023-01-04T21:26:52.190Z,61.40
2023-01-04T21:31:59.260Z,61.00
2023-01-04T21:37:04.953Z,61.00
2023-01-04T21:42:13.228Z,60.90
2023-01-04T21:47:20.563Z,60.70
2023-01-04T21:52:26.133Z,60.70
2023-01-04T21:57:31.269Z,60.40
2023-01-04T22:02:40.053Z,60.30
2023-01-04T22:07:49.713Z,60.60
2023-01-04T22:12:55.280Z,60.50
2023-01-04T22:17:59.324Z,60.30
2023-01-04T22:23:03.440Z,60.00
2023-01-04T22:28:07.511Z,60.70
2023-01-04T22:33:11.505Z,61.20
2023-01-04T22:38:15.847Z,61.10
2023-01-04T22:43:19.869Z,60.90
2023-01-04T22:48:24.017Z,61.20
2023-01-04T22:53:28.447Z,61.10
2023-01-04T22:58:32.798Z,60.50
2023-01-04T23:03:39.248Z,60.50
2023-01-04T23:08:43.639Z,61.50
2023-01-04T23:13:47.971Z,62.80
2023-01-04T23:18:52.188Z,62.40
2023-01-04T23:23:56.337Z,62.50
2023-01-04T23:29:02.097Z,62.60
2023-01-04T23:34:07.491Z,62.50
2023-01-04T23:39:16.333Z,62.30
2023-01-04T23:49:27.253Z,62.40
2023-01-04T23:54:31.993Z,62.30
2023-01-04T23:59:36.009Z,62.20
